Time;durP1;ratioP1;P1;durP2;ratioP2;P2;SDS_P1;SDS_P2;PMS_P1;PMS_P2;Temp;Humidity;BMP_temperature;BMP_pressure;BME280_temperature;BME280_humidity;BME280_pressure;Samples;Min_cycle;Max_cycle;Signal;HPM_P1;HPM_P2
2022/11/23 00:01:25;;;;;;;2.67;1.50;;;;;;;;;;4988028;28;20554;-62
2022/11/23 00:03:52;;;;;;;2.40;1.33;;;;;;;;;;4998215;28;20277;-63
2022/11/23 00:06:20;;;;;;;3.90;1.83;;;;;;;;;;5004692;28;20183;-62
2022/11/23 00:08:46;;;;;;;2.77;1.50;;;;;;;;;;4988485;28;20221;-63
2022/11/23 00:11:12;;;;;;;5.13;1.90;;;;;;;;;;4974014;28;20601;-63
2022/11/23 00:13:39;;;;;;;2.07;1.33;;;;;;;;;;4998765;28;20271;-63
2022/11/23 00:16:09;;;;;;;3.17;1.50;;;;;;;;;;5007129;28;20725;-63
2022/11/23 00:18:36;;;;;;;5.23;1.60;;;;;;;;;;4999787;28;20179;-63
2022/11/23 00:21:06;;;;;;;4.80;2.23;;;;;;;;;;4997008;28;20642;-63
2022/11/23 00:23:32;;;;;;;2.00;1.50;;;;;;;;;;4992367;28;20692;-63
2022/11/23 00:25:58;;;;;;;2.77;1.30;;;;;;;;;;4998491;28;20175;-63
2022/11/23 00:28:24;;;;;;;4.07;1.70;;;;;;;;;;4973287;28;20183;-62
2022/11/23 00:30:50;;;;;;;3.03;1.70;;;;;;;;;;5010565;28;20232;-63
2022/11/23 00:33:17;;;;;;;2.43;1.40;;;;;;;;;;5016766;28;20219;-62
2022/11/23 00:35:43;;;;;;;2.20;1.50;;;;;;;;;;5005986;28;20548;-63
2022/11/23 00:38:16;;;;;;;1.93;1.40;;;;;;;;;;4981382;28;20701;-62
2022/11/23 00:40:42;;;;;;;2.60;1.33;;;;;;;;;;4990297;28;20191;-62
2022/11/23 00:43:08;;;;;;;2.20;1.23;;;;;;;;;;4990374;28;20594;-63
2022/11/23 00:45:34;;;;;;;2.13;1.53;;;;;;;;;;5006791;28;20178;-62
2022/11/23 00:48:00;;;;;;;3.07;1.50;;;;;;;;;;4997267;28;20277;-62
2022/11/23 00:50:26;;;;;;;3.97;1.50;;;;;;;;;;4996853;28;20610;-62
2022/11/23 00:52:52;;;;;;;2.57;1.73;;;;;;;;;;4991053;28;20288;-62
2022/11/23 00:55:18;;;;;;;2.97;1.50;;;;;;;;;;4983029;28;20191;-62
2022/11/23 00:57:44;;;;;;;2.30;1.23;;;;;;;;;;4988163;28;20186;-62
2022/11/23 01:00:11;;;;;;;3.67;1.63;;;;;;;;;;4999489;28;20179;-61
2022/11/23 01:02:37;;;;;;;3.40;1.63;;;;;;;;;;4992425;28;20274;-62
2022/11/23 01:05:03;;;;;;;2.73;1.50;;;;;;;;;;4997219;28;20186;-62
2022/11/23 01:07:29;;;;;;;5.00;1.57;;;;;;;;;;4996286;28;20170;-62
2022/11/23 01:09:56;;;;;;;3.97;1.70;;;;;;;;;;4993924;28;20186;-63
2022/11/23 01:12:22;;;;;;;2.50;1.37;;;;;;;;;;5000549;28;20737;-62
2022/11/23 01:14:48;;;;;;;3.83;1.30;;;;;;;;;;4988909;28;20174;-62
2022/11/23 01:17:14;;;;;;;2.13;1.43;;;;;;;;;;4999359;28;20478;-62
2022/11/23 01:19:40;;;;;;;1.67;1.30;;;;;;;;;;5005297;28;20694;-63
2022/11/23 01:22:06;;;;;;;3.03;1.77;;;;;;;;;;4994529;28;20268;-63
2022/11/23 01:24:32;;;;;;;1.63;1.47;;;;;;;;;;5000943;28;20191;-63
2022/11/23 01:26:58;;;;;;;8.53;1.83;;;;;;;;;;4986177;28;20895;-62
2022/11/23 01:29:24;;;;;;;1.30;1.20;;;;;;;;;;4969802;28;20955;-63
2022/11/23 01:31:50;;;;;;;2.67;1.53;;;;;;;;;;4990986;28;20205;-63
2022/11/23 01:34:23;;;;;;;4.10;1.67;;;;;;;;;;4987177;28;20662;-63
2022/11/23 01:36:49;;;;;;;1.97;1.60;;;;;;;;;;4972668;28;20175;-63
2022/11/23 01:39:15;;;;;;;2.10;1.43;;;;;;;;;;4963756;28;20195;-67
2022/11/23 01:41:42;;;;;;;3.63;1.33;;;;;;;;;;4970986;28;20271;-64
2022/11/23 01:44:25;;;;;;;4.20;1.17;;;;;;;;;;4976796;28;20617;-63
2022/11/23 01:46:51;;;;;;;3.10;1.50;;;;;;;;;;4968010;28;20669;-65
2022/11/23 01:49:17;;;;;;;2.50;1.40;;;;;;;;;;4972412;28;20623;-63
2022/11/23 01:51:45;;;;;;;2.67;1.53;;;;;;;;;;4967387;28;20722;-64
2022/11/23 01:54:14;;;;;;;5.73;1.40;;;;;;;;;;4969790;28;20699;-63
2022/11/23 01:56:43;;;;;;;4.20;1.60;;;;;;;;;;4978502;28;20183;-63
2022/11/23 01:59:12;;;;;;;2.23;1.30;;;;;;;;;;4972180;28;20537;-63
2022/11/23 02:01:38;;;;;;;1.80;1.60;;;;;;;;;;4983156;28;20184;-64
2022/11/23 02:04:06;;;;;;;4.10;2.27;;;;;;;;;;4974738;28;20190;-63
2022/11/23 02:06:33;;;;;;;2.00;1.40;;;;;;;;;;4970852;28;20231;-63
2022/11/23 02:08:59;;;;;;;4.87;1.50;;;;;;;;;;4980650;28;20262;-63
2022/11/23 02:11:25;;;;;;;2.60;1.50;;;;;;;;;;4982773;28;20728;-62
2022/11/23 02:13:51;;;;;;;3.07;1.50;;;;;;;;;;4976330;28;20175;-62
2022/11/23 02:16:18;;;;;;;3.60;1.83;;;;;;;;;;4976695;28;20693;-65
2022/11/23 02:18:46;;;;;;;2.57;1.43;;;;;;;;;;4976632;28;20676;-64
2022/11/23 02:21:12;;;;;;;2.33;1.23;;;;;;;;;;4980556;28;20179;-62
2022/11/23 02:23:46;;;;;;;4.13;1.40;;;;;;;;;;4973968;28;20183;-63
2022/11/23 02:26:14;;;;;;;2.10;1.43;;;;;;;;;;4971719;28;20915;-63
2022/11/23 02:28:45;;;;;;;3.47;1.57;;;;;;;;;;4978613;28;20262;-63
2022/11/23 02:31:11;;;;;;;5.10;1.93;;;;;;;;;;4985601;28;20187;-63
2022/11/23 02:33:38;;;;;;;2.37;1.40;;;;;;;;;;4968858;28;20175;-63
2022/11/23 02:36:22;;;;;;;2.90;1.73;;;;;;;;;;4971706;28;20245;-63
2022/11/23 02:38:48;;;;;;;2.20;1.57;;;;;;;;;;4965761;28;20223;-63
2022/11/23 02:41:14;;;;;;;3.30;1.77;;;;;;;;;;4967272;28;20183;-63
2022/11/23 02:43:40;;;;;;;1.23;1.13;;;;;;;;;;4951476;28;20552;-63
2022/11/23 02:46:06;;;;;;;2.57;1.33;;;;;;;;;;4973067;28;20736;-63
2022/11/23 02:48:34;;;;;;;6.17;1.70;;;;;;;;;;4967656;28;20583;-63
2022/11/23 02:51:00;;;;;;;3.37;1.20;;;;;;;;;;4967524;28;20635;-63
2022/11/23 02:53:26;;;;;;;3.07;1.33;;;;;;;;;;4952108;28;20195;-62
2022/11/23 02:55:52;;;;;;;4.30;1.47;;;;;;;;;;4966122;28;20192;-63
2022/11/23 02:58:18;;;;;;;6.30;2.00;;;;;;;;;;4973500;28;20238;-63
2022/11/23 03:00:44;;;;;;;2.63;2.03;;;;;;;;;;4968230;28;20569;-63
2022/11/23 03:03:10;;;;;;;6.00;2.23;;;;;;;;;;4972735;28;20266;-63
2022/11/23 03:05:36;;;;;;;2.30;1.70;;;;;;;;;;4977698;28;20190;-63
2022/11/23 03:08:02;;;;;;;3.40;1.90;;;;;;;;;;4969157;28;20203;-63
2022/11/23 03:10:28;;;;;;;3.47;1.40;;;;;;;;;;4968183;28;20215;-63
2022/11/23 03:12:55;;;;;;;4.87;1.90;;;;;;;;;;4975527;28;20187;-63
2022/11/23 03:15:22;;;;;;;3.13;1.30;;;;;;;;;;4973081;28;20673;-63
2022/11/23 03:17:48;;;;;;;2.93;1.60;;;;;;;;;;4979770;28;20259;-63
2022/11/23 03:20:15;;;;;;;4.90;1.80;;;;;;;;;;4980550;28;20191;-62
2022/11/23 03:22:41;;;;;;;3.27;1.73;;;;;;;;;;4969918;28;20218;-63
2022/11/23 03:25:07;;;;;;;2.83;1.47;;;;;;;;;;4984285;28;20274;-65
2022/11/23 03:27:33;;;;;;;5.00;2.00;;;;;;;;;;4955399;28;20555;-63
2022/11/23 03:30:00;;;;;;;6.97;1.80;;;;;;;;;;4951985;28;20648;-63
2022/11/23 03:32:26;;;;;;;5.10;1.60;;;;;;;;;;4970749;28;20931;-63
2022/11/23 03:34:52;;;;;;;5.30;1.73;;;;;;;;;;4978921;28;20172;-63
2022/11/23 03:37:18;;;;;;;5.73;1.77;;;;;;;;;;4958926;28;21691;-63
2022/11/23 03:39:44;;;;;;;4.13;1.80;;;;;;;;;;4991272;28;20201;-63
2022/11/23 03:42:10;;;;;;;5.93;2.97;;;;;;;;;;4999660;28;20186;-62
2022/11/23 03:44:36;;;;;;;2.63;1.60;;;;;;;;;;5001420;28;20187;-63
2022/11/23 03:47:02;;;;;;;5.07;1.47;;;;;;;;;;5001617;28;20209;-64
2022/11/23 03:49:28;;;;;;;4.13;1.67;;;;;;;;;;5001542;28;20583;-63
2022/11/23 03:51:54;;;;;;;5.67;2.07;;;;;;;;;;4997319;28;20210;-63
2022/11/23 03:54:20;;;;;;;5.33;2.13;;;;;;;;;;5003364;28;20260;-63
2022/11/23 03:56:46;;;;;;;5.20;2.17;;;;;;;;;;4997448;28;20183;-63
2022/11/23 03:59:12;;;;;;;3.43;1.57;;;;;;;;;;5002561;28;20237;-63
2022/11/23 04:01:38;;;;;;;4.50;1.70;;;;;;;;;;5000344;28;20236;-63
2022/11/23 04:04:04;;;;;;;2.90;2.03;;;;;;;;;;4994728;28;20571;-64
2022/11/23 04:06:30;;;;;;;4.83;1.90;;;;;;;;;;4991821;28;20191;-63
2022/11/23 04:08:56;;;;;;;3.67;1.93;;;;;;;;;;4988250;28;20897;-63
2022/11/23 04:11:22;;;;;;;3.93;1.90;;;;;;;;;;4999259;28;20203;-64
2022/11/23 04:13:48;;;;;;;8.43;2.13;;;;;;;;;;4994288;28;20572;-64
2022/11/23 04:16:14;;;;;;;5.20;2.20;;;;;;;;;;4996934;28;20174;-63
2022/11/23 04:18:40;;;;;;;5.03;1.90;;;;;;;;;;5003186;28;20182;-63
2022/11/23 04:21:06;;;;;;;2.90;1.60;;;;;;;;;;5001578;28;20731;-63
2022/11/23 04:23:33;;;;;;;5.47;1.90;;;;;;;;;;5002277;28;20193;-63
2022/11/23 04:25:59;;;;;;;4.53;2.00;;;;;;;;;;4984866;28;20205;-63
2022/11/23 04:28:25;;;;;;;5.13;1.80;;;;;;;;;;4994732;28;20182;-63
2022/11/23 04:30:51;;;;;;;2.90;2.03;;;;;;;;;;5003824;28;20253;-63
2022/11/23 04:33:17;;;;;;;4.77;2.20;;;;;;;;;;5000176;28;20179;-63
2022/11/23 04:35:43;;;;;;;3.33;1.70;;;;;;;;;;4972189;28;20182;-63
2022/11/23 04:38:09;;;;;;;5.23;1.60;;;;;;;;;;5005295;28;20633;-63
2022/11/23 04:40:35;;;;;;;3.93;1.80;;;;;;;;;;4996495;28;20269;-63
2022/11/23 04:43:01;;;;;;;4.20;1.60;;;;;;;;;;4994578;28;20189;-63
2022/11/23 04:45:27;;;;;;;4.23;2.20;;;;;;;;;;5001340;28;20698;-63
2022/11/23 04:47:53;;;;;;;3.53;1.83;;;;;;;;;;4976935;28;20219;-63
2022/11/23 04:50:19;;;;;;;3.47;1.60;;;;;;;;;;4974724;28;20207;-63
2022/11/23 04:52:45;;;;;;;4.10;1.80;;;;;;;;;;4994340;28;20212;-63
2022/11/23 04:55:11;;;;;;;3.37;2.27;;;;;;;;;;4994348;28;20175;-63
2022/11/23 04:57:37;;;;;;;4.27;1.80;;;;;;;;;;4999723;28;20428;-63
2022/11/23 05:00:04;;;;;;;2.50;1.63;;;;;;;;;;4990592;28;20179;-63
2022/11/23 05:02:30;;;;;;;2.10;1.50;;;;;;;;;;5002741;28;20261;-63
2022/11/23 05:04:56;;;;;;;3.30;1.20;;;;;;;;;;5001540;28;20664;-62
2022/11/23 05:07:22;;;;;;;4.50;1.60;;;;;;;;;;4992459;28;20175;-63
2022/11/23 05:09:48;;;;;;;4.00;1.50;;;;;;;;;;4972962;28;20187;-62
2022/11/23 05:12:14;;;;;;;3.23;1.40;;;;;;;;;;5000413;28;20302;-63
2022/11/23 05:14:41;;;;;;;3.87;1.80;;;;;;;;;;4994306;28;20178;-62
2022/11/23 05:17:07;;;;;;;5.47;1.67;;;;;;;;;;4999354;28;20589;-63
2022/11/23 05:19:33;;;;;;;2.27;1.33;;;;;;;;;;5010881;28;20662;-63
2022/11/23 05:21:59;;;;;;;4.07;1.80;;;;;;;;;;4994218;28;20186;-63
2022/11/23 05:24:25;;;;;;;5.53;1.70;;;;;;;;;;5001455;28;20199;-63
2022/11/23 05:26:52;;;;;;;4.07;1.60;;;;;;;;;;4986800;28;20722;-63
2022/11/23 05:29:18;;;;;;;2.53;1.60;;;;;;;;;;4997148;28;20257;-63
2022/11/23 05:31:44;;;;;;;6.50;2.40;;;;;;;;;;4988531;28;20254;-63
2022/11/23 05:34:10;;;;;;;3.07;1.60;;;;;;;;;;4986960;28;20612;-63
2022/11/23 05:36:36;;;;;;;1.77;1.30;;;;;;;;;;4992369;28;20250;-63
2022/11/23 05:39:02;;;;;;;3.77;1.80;;;;;;;;;;4996051;28;20234;-63
2022/11/23 05:41:28;;;;;;;2.90;1.67;;;;;;;;;;4988383;28;20329;-63
2022/11/23 05:43:54;;;;;;;5.77;1.77;;;;;;;;;;5002325;28;20206;-63
2022/11/23 05:46:20;;;;;;;3.00;1.90;;;;;;;;;;4993704;28;20210;-64
2022/11/23 05:48:46;;;;;;;3.10;1.63;;;;;;;;;;4972170;28;20241;-63
2022/11/23 05:51:12;;;;;;;5.23;1.73;;;;;;;;;;4994480;28;20214;-63
2022/11/23 05:53:38;;;;;;;5.17;1.80;;;;;;;;;;4973505;28;20198;-64
2022/11/23 05:56:04;;;;;;;4.87;1.80;;;;;;;;;;4973670;28;20677;-62
2022/11/23 05:58:30;;;;;;;5.73;2.10;;;;;;;;;;4996123;28;20268;-62
2022/11/23 06:00:57;;;;;;;3.10;1.53;;;;;;;;;;4976050;28;20218;-62
2022/11/23 06:03:23;;;;;;;2.80;1.47;;;;;;;;;;4978067;28;20187;-63
2022/11/23 06:05:49;;;;;;;3.83;1.60;;;;;;;;;;4987030;28;20783;-63
2022/11/23 06:08:15;;;;;;;4.40;1.60;;;;;;;;;;4968921;28;20183;-63
2022/11/23 06:10:41;;;;;;;3.03;1.47;;;;;;;;;;4992014;28;20260;-62
2022/11/23 06:13:14;;;;;;;3.57;1.50;;;;;;;;;;4986215;28;20187;-62
2022/11/23 06:15:40;;;;;;;3.77;1.87;;;;;;;;;;4988252;28;20206;-63
2022/11/23 06:18:06;;;;;;;3.93;1.57;;;;;;;;;;4992521;28;20674;-63
2022/11/23 06:20:32;;;;;;;3.30;1.50;;;;;;;;;;4996392;28;20174;-65
2022/11/23 06:22:58;;;;;;;4.43;1.87;;;;;;;;;;5006599;28;20175;-65
2022/11/23 06:25:24;;;;;;;5.70;1.70;;;;;;;;;;4992629;28;20183;-63
2022/11/23 06:27:54;;;;;;;5.97;2.33;;;;;;;;;;5002291;28;20749;-61
2022/11/23 06:30:20;;;;;;;3.30;1.77;;;;;;;;;;4991236;28;20753;-61
2022/11/23 06:32:46;;;;;;;4.30;2.07;;;;;;;;;;4994891;28;20195;-63
2022/11/23 06:35:12;;;;;;;6.07;1.70;;;;;;;;;;4970854;28;20560;-62
2022/11/23 06:37:38;;;;;;;4.50;1.97;;;;;;;;;;4997108;28;21191;-62
2022/11/23 06:40:05;;;;;;;4.47;1.77;;;;;;;;;;5002361;28;20233;-61
2022/11/23 06:42:31;;;;;;;4.57;1.80;;;;;;;;;;4993176;28;20223;-61
2022/11/23 06:44:57;;;;;;;3.70;1.47;;;;;;;;;;5000335;28;20214;-61
2022/11/23 06:47:23;;;;;;;2.93;2.10;;;;;;;;;;4985227;28;20277;-61
2022/11/23 06:49:49;;;;;;;4.47;1.70;;;;;;;;;;4985579;28;20183;-61
2022/11/23 06:52:15;;;;;;;2.33;1.50;;;;;;;;;;4983885;28;20617;-61
2022/11/23 06:54:41;;;;;;;6.10;1.90;;;;;;;;;;4984332;28;20465;-62
2022/11/23 06:57:07;;;;;;;2.87;1.77;;;;;;;;;;4985251;28;20630;-61
2022/11/23 06:59:33;;;;;;;4.23;1.97;;;;;;;;;;4985390;28;20288;-62
2022/11/23 07:01:59;;;;;;;4.30;1.93;;;;;;;;;;4989127;28;20575;-62
2022/11/23 07:04:25;;;;;;;4.37;1.93;;;;;;;;;;4989589;28;20654;-62
2022/11/23 07:06:51;;;;;;;4.57;1.60;;;;;;;;;;4988090;28;20177;-62
2022/11/23 07:09:24;;;;;;;4.03;1.50;;;;;;;;;;4989100;28;20226;-62
2022/11/23 07:11:50;;;;;;;3.73;1.40;;;;;;;;;;4972128;28;20203;-62
2022/11/23 07:14:16;;;;;;;3.47;1.67;;;;;;;;;;5008505;28;20689;-62
2022/11/23 07:16:42;;;;;;;6.57;1.77;;;;;;;;;;5009006;28;20289;-62
2022/11/23 07:19:08;;;;;;;2.00;1.43;;;;;;;;;;4991215;28;20269;-61
2022/11/23 07:21:34;;;;;;;5.00;2.00;;;;;;;;;;5007640;28;20159;-62
2022/11/23 07:24:00;;;;;;;3.57;1.63;;;;;;;;;;5008835;28;20170;-62
2022/11/23 07:26:26;;;;;;;4.57;1.90;;;;;;;;;;5008205;28;20197;-62
2022/11/23 07:28:52;;;;;;;6.63;2.17;;;;;;;;;;5008452;28;20171;-61
2022/11/23 07:31:18;;;;;;;2.93;1.67;;;;;;;;;;5008000;28;20728;-61
2022/11/23 07:33:48;;;;;;;6.23;2.03;;;;;;;;;;5008261;28;20190;-61
2022/11/23 07:36:14;;;;;;;4.50;1.83;;;;;;;;;;5007276;28;20580;-61
2022/11/23 07:38:40;;;;;;;2.93;1.57;;;;;;;;;;5010223;28;20732;-61
2022/11/23 07:41:08;;;;;;;3.37;1.70;;;;;;;;;;5007716;28;20221;-61
2022/11/23 07:43:34;;;;;;;4.80;1.53;;;;;;;;;;4990417;28;20489;-61
2022/11/23 07:46:00;;;;;;;3.63;1.80;;;;;;;;;;5007863;28;20230;-61
2022/11/23 07:48:26;;;;;;;4.40;1.90;;;;;;;;;;4990444;28;20298;-61
2022/11/23 07:50:53;;;;;;;3.60;1.93;;;;;;;;;;4988866;28;20202;-61
2022/11/23 07:53:19;;;;;;;3.53;2.10;;;;;;;;;;4990303;28;20181;-62
2022/11/23 07:55:45;;;;;;;3.43;1.80;;;;;;;;;;4990018;28;20186;-61
2022/11/23 07:58:11;;;;;;;4.37;2.10;;;;;;;;;;5007875;28;20244;-61
2022/11/23 08:00:37;;;;;;;3.60;2.20;;;;;;;;;;5007578;28;20649;-61
2022/11/23 08:03:04;;;;;;;4.03;1.57;;;;;;;;;;5007942;28;20182;-61
2022/11/23 08:05:34;;;;;;;2.80;1.63;;;;;;;;;;4988798;28;20194;-61
2022/11/23 08:08:01;;;;;;;5.27;1.73;;;;;;;;;;4990230;28;20178;-61
2022/11/23 08:10:28;;;;;;;6.37;1.70;;;;;;;;;;5007353;28;20648;-62
2022/11/23 08:12:56;;;;;;;4.83;1.87;;;;;;;;;;5007109;28;20163;-61
2022/11/23 08:15:22;;;;;;;3.80;2.20;;;;;;;;;;5007315;28;20436;-61
2022/11/23 08:17:48;;;;;;;4.57;1.77;;;;;;;;;;5007374;28;20155;-61
2022/11/23 08:20:15;;;;;;;6.27;2.57;;;;;;;;;;5007088;28;20238;-61
2022/11/23 08:22:41;;;;;;;3.20;1.67;;;;;;;;;;5006089;28;20158;-62
2022/11/23 08:25:07;;;;;;;4.37;1.77;;;;;;;;;;4989603;28;20773;-61
2022/11/23 08:27:33;;;;;;;3.20;1.70;;;;;;;;;;5007237;28;20170;-61
2022/11/23 08:29:59;;;;;;;2.93;1.67;;;;;;;;;;5007469;28;20181;-63
2022/11/23 08:32:25;;;;;;;6.07;1.90;;;;;;;;;;4989111;28;20559;-61
2022/11/23 08:34:51;;;;;;;4.87;1.70;;;;;;;;;;4985903;28;20222;-61
2022/11/23 08:37:17;;;;;;;2.13;1.43;;;;;;;;;;4986638;28;20584;-62
2022/11/23 08:39:43;;;;;;;6.43;1.87;;;;;;;;;;4989270;28;20534;-62
2022/11/23 08:42:10;;;;;;;4.27;1.77;;;;;;;;;;4986945;28;20842;-61
2022/11/23 08:44:36;;;;;;;4.17;1.67;;;;;;;;;;4987660;28;20657;-62
2022/11/23 08:47:02;;;;;;;2.47;1.73;;;;;;;;;;4987061;28;20244;-62
2022/11/23 08:49:28;;;;;;;5.07;2.10;;;;;;;;;;4992122;28;20186;-62
2022/11/23 08:51:54;;;;;;;4.80;2.07;;;;;;;;;;4987805;28;20559;-62
2022/11/23 08:54:22;;;;;;;5.03;1.80;;;;;;;;;;5006691;28;20617;-62
2022/11/23 08:56:48;;;;;;;2.73;1.40;;;;;;;;;;5006737;28;20604;-62
2022/11/23 08:59:16;;;;;;;6.30;2.00;;;;;;;;;;4989592;28;20206;-62
2022/11/23 09:01:42;;;;;;;6.37;2.00;;;;;;;;;;5006441;28;20310;-62
2022/11/23 09:04:08;;;;;;;7.70;2.03;;;;;;;;;;5006992;28;20174;-61
2022/11/23 09:06:34;;;;;;;7.50;1.80;;;;;;;;;;5006226;28;20221;-61
2022/11/23 09:09:00;;;;;;;5.50;2.40;;;;;;;;;;5006979;28;20510;-61
2022/11/23 09:11:26;;;;;;;9.37;2.17;;;;;;;;;;5006799;28;20198;-61
2022/11/23 09:13:53;;;;;;;2.57;1.70;;;;;;;;;;4989280;28;20626;-61
2022/11/23 09:16:19;;;;;;;3.17;1.50;;;;;;;;;;5006411;28;20166;-61
2022/11/23 09:18:48;;;;;;;8.40;2.70;;;;;;;;;;4988913;28;20432;-61
2022/11/23 09:21:14;;;;;;;3.13;1.70;;;;;;;;;;5005204;28;20705;-61
2022/11/23 09:23:40;;;;;;;3.30;1.90;;;;;;;;;;4994057;28;20261;-65
2022/11/23 09:26:06;;;;;;;4.00;1.90;;;;;;;;;;4986615;28;20174;-61
2022/11/23 09:28:32;;;;;;;6.63;2.20;;;;;;;;;;4986886;28;20682;-61
2022/11/23 09:31:01;;;;;;;5.47;2.30;;;;;;;;;;4986820;28;20721;-61
2022/11/23 09:33:27;;;;;;;6.10;2.30;;;;;;;;;;4990555;28;20197;-61
2022/11/23 09:36:01;;;;;;;4.23;1.70;;;;;;;;;;5005113;28;20154;-62
2022/11/23 09:38:27;;;;;;;4.33;1.90;;;;;;;;;;4990101;28;20241;-61
2022/11/23 09:41:07;;;;;;;3.77;1.67;;;;;;;;;;4988170;28;20610;-61
2022/11/23 09:43:43;;;;;;;4.53;1.97;;;;;;;;;;4988286;28;20637;-61
2022/11/23 09:46:21;;;;;;;6.03;2.23;;;;;;;;;;5005628;28;20550;-61
2022/11/23 09:48:54;;;;;;;6.77;2.17;;;;;;;;;;4987902;28;20197;-60
2022/11/23 09:51:21;;;;;;;5.40;2.27;;;;;;;;;;5004629;28;20237;-61
2022/11/23 09:53:47;;;;;;;3.30;1.93;;;;;;;;;;4988293;28;20712;-61
2022/11/23 09:56:22;;;;;;;7.00;2.33;;;;;;;;;;5005447;28;20241;-61
2022/11/23 09:58:50;;;;;;;5.57;2.00;;;;;;;;;;5006146;28;20166;-61
2022/11/23 10:01:16;;;;;;;5.23;2.40;;;;;;;;;;4987568;28;20182;-61
2022/11/23 10:03:44;;;;;;;7.80;2.37;;;;;;;;;;5005999;28;20598;-61
2022/11/23 10:06:21;;;;;;;4.40;2.13;;;;;;;;;;5004833;28;20222;-61
2022/11/23 10:09:06;;;;;;;5.27;1.90;;;;;;;;;;4987880;28;20604;-61
2022/11/23 10:11:41;;;;;;;5.97;2.27;;;;;;;;;;5005292;28;20194;-61
2022/11/23 10:14:07;;;;;;;5.73;1.93;;;;;;;;;;5005499;28;20173;-61
2022/11/23 10:16:37;;;;;;;4.20;2.03;;;;;;;;;;5005679;28;20163;-61
2022/11/23 10:19:12;;;;;;;2.93;1.50;;;;;;;;;;4987782;28;20177;-61
2022/11/23 10:21:52;;;;;;;4.57;2.43;;;;;;;;;;5004116;28;20173;-61
2022/11/23 10:24:20;;;;;;;7.23;2.30;;;;;;;;;;4987611;28;20223;-61
2022/11/23 10:26:48;;;;;;;2.83;1.67;;;;;;;;;;5005083;28;20641;-62
2022/11/23 10:29:34;;;;;;;4.67;3.20;;;;;;;;;;5005669;28;20175;-62
2022/11/23 10:32:01;;;;;;;6.87;2.20;;;;;;;;;;5005272;28;20681;-64
2022/11/23 10:34:45;;;;;;;7.77;2.07;;;;;;;;;;4993589;28;20167;-61
2022/11/23 10:37:12;;;;;;;6.17;2.00;;;;;;;;;;4984760;28;20495;-61
2022/11/23 10:39:38;;;;;;;8.53;2.03;;;;;;;;;;4969770;28;20566;-61
2022/11/23 10:42:11;;;;;;;8.63;2.20;;;;;;;;;;4985170;28;20555;-61
2022/11/23 10:44:38;;;;;;;7.33;2.07;;;;;;;;;;4985587;28;20270;-62
2022/11/23 10:47:04;;;;;;;4.47;2.00;;;;;;;;;;4985220;28;20615;-61
2022/11/23 10:49:32;;;;;;;8.57;2.20;;;;;;;;;;4967821;28;20286;-60
2022/11/23 10:52:24;;;;;;;6.00;2.67;;;;;;;;;;4966802;28;20486;-61
2022/11/23 10:55:01;;;;;;;9.90;2.60;;;;;;;;;;4983136;28;20195;-62
2022/11/23 10:57:27;;;;;;;5.70;2.20;;;;;;;;;;4967342;28;20175;-61
2022/11/23 11:00:00;;;;;;;4.17;2.80;;;;;;;;;;4985333;28;20471;-61
2022/11/23 11:02:26;;;;;;;6.73;2.20;;;;;;;;;;4984591;28;20187;-61
2022/11/23 11:05:11;;;;;;;3.43;1.80;;;;;;;;;;4985611;28;20167;-61
2022/11/23 11:07:38;;;;;;;5.67;1.93;;;;;;;;;;4983993;28;20190;-61
2022/11/23 11:10:04;;;;;;;5.30;1.97;;;;;;;;;;4985408;28;20181;-61
2022/11/23 11:12:34;;;;;;;8.30;2.20;;;;;;;;;;4984893;28;20742;-61
2022/11/23 11:15:09;;;;;;;5.53;2.33;;;;;;;;;;4985176;28;20164;-61
2022/11/23 11:17:38;;;;;;;5.50;2.17;;;;;;;;;;4984881;28;20159;-61
2022/11/23 11:20:22;;;;;;;2.77;1.53;;;;;;;;;;4967596;28;20520;-62
2022/11/23 11:22:48;;;;;;;4.30;1.83;;;;;;;;;;4984404;28;20182;-61
2022/11/23 11:25:27;;;;;;;7.27;2.57;;;;;;;;;;4967358;28;20171;-61
2022/11/23 11:27:53;;;;;;;6.43;2.07;;;;;;;;;;4967526;28;20172;-60
2022/11/23 11:30:23;;;;;;;9.43;2.60;;;;;;;;;;4984993;28;20674;-61
2022/11/23 11:33:02;;;;;;;5.63;2.30;;;;;;;;;;4985130;28;20189;-61
2022/11/23 11:35:34;;;;;;;4.60;1.90;;;;;;;;;;4966737;28;20201;-61
2022/11/23 11:38:01;;;;;;;4.53;1.87;;;;;;;;;;4969174;28;20365;-61
2022/11/23 11:40:27;;;;;;;4.67;1.87;;;;;;;;;;4984748;28;20171;-61
2022/11/23 11:42:58;;;;;;;4.83;1.87;;;;;;;;;;4984927;28;20355;-61
2022/11/23 11:45:27;;;;;;;4.97;1.73;;;;;;;;;;4985465;28;20163;-61
2022/11/23 11:47:57;;;;;;;4.00;1.60;;;;;;;;;;4970208;28;20187;-60
2022/11/23 11:50:24;;;;;;;3.77;2.20;;;;;;;;;;4970606;28;20202;-62
2022/11/23 11:52:54;;;;;;;4.20;1.93;;;;;;;;;;4988171;28;20164;-62
2022/11/23 11:55:20;;;;;;;3.87;2.07;;;;;;;;;;4988569;28;20243;-60
2022/11/23 11:57:50;;;;;;;5.87;1.90;;;;;;;;;;4970826;28;20179;-61
2022/11/23 12:00:20;;;;;;;4.43;1.93;;;;;;;;;;4988531;28;20737;-61
2022/11/23 12:02:55;;;;;;;5.93;2.13;;;;;;;;;;4988236;28;20641;-61
2022/11/23 12:05:26;;;;;;;2.93;1.73;;;;;;;;;;4970634;28;20195;-61
2022/11/23 12:08:10;;;;;;;5.23;2.13;;;;;;;;;;4988041;28;20151;-61
2022/11/23 12:11:01;;;;;;;4.20;2.50;;;;;;;;;;4987682;28;20670;-61
2022/11/23 12:13:34;;;;;;;4.60;2.10;;;;;;;;;;4988309;28;20156;-60
2022/11/23 12:16:00;;;;;;;4.43;1.57;;;;;;;;;;4987734;28;20246;-60
2022/11/23 12:18:29;;;;;;;4.23;1.70;;;;;;;;;;4988120;28;20215;-61
2022/11/23 12:21:10;;;;;;;3.90;2.00;;;;;;;;;;4987055;28;20465;-61
2022/11/23 12:24:02;;;;;;;3.97;1.80;;;;;;;;;;4998873;28;20672;-61
2022/11/23 12:26:34;;;;;;;2.17;1.80;;;;;;;;;;4952897;28;20186;-60
2022/11/23 12:29:00;;;;;;;2.57;1.77;;;;;;;;;;5007736;28;20167;-61
2022/11/23 12:31:29;;;;;;;5.87;1.63;;;;;;;;;;5006969;28;20253;-61
2022/11/23 12:34:01;;;;;;;4.93;1.63;;;;;;;;;;5007304;28;20595;-60
2022/11/23 12:36:46;;;;;;;6.93;1.60;;;;;;;;;;5006255;28;20191;-61
2022/11/23 12:39:31;;;;;;;4.50;1.57;;;;;;;;;;5009536;28;20233;-60
2022/11/23 12:42:07;;;;;;;3.87;1.90;;;;;;;;;;5007215;28;20241;-60
2022/11/23 12:44:48;;;;;;;4.00;1.97;;;;;;;;;;5007505;28;20245;-60
2022/11/23 12:47:31;;;;;;;4.77;1.33;;;;;;;;;;5007272;28;20210;-60
2022/11/23 12:50:03;;;;;;;4.50;1.83;;;;;;;;;;4989615;28;20230;-60
2022/11/23 12:52:29;;;;;;;1.70;1.20;;;;;;;;;;5005928;28;20241;-60
2022/11/23 12:55:14;;;;;;;5.77;1.80;;;;;;;;;;5007459;28;20175;-60
2022/11/23 12:57:43;;;;;;;3.60;2.30;;;;;;;;;;5006352;28;20169;-60
2022/11/23 13:00:15;;;;;;;1.50;1.40;;;;;;;;;;4988932;28;20190;-60
2022/11/23 13:03:03;;;;;;;5.67;2.20;;;;;;;;;;5006995;28;20210;-60
2022/11/23 13:05:48;;;;;;;5.30;1.83;;;;;;;;;;5006112;28;20704;-60
2022/11/23 13:08:14;;;;;;;4.23;1.80;;;;;;;;;;5007019;28;20193;-59
2022/11/23 13:10:58;;;;;;;4.83;1.93;;;;;;;;;;5006553;28;20226;-60
2022/11/23 13:13:48;;;;;;;3.07;1.60;;;;;;;;;;5006947;28;20167;-60
2022/11/23 13:16:32;;;;;;;4.33;2.23;;;;;;;;;;4960895;28;20191;-60
2022/11/23 13:19:05;;;;;;;2.50;1.57;;;;;;;;;;5006930;28;20617;-60
2022/11/23 13:21:42;;;;;;;3.10;1.70;;;;;;;;;;5005366;28;20189;-60
2022/11/23 13:24:26;;;;;;;2.87;1.47;;;;;;;;;;5006387;28;20170;-60
2022/11/23 13:27:11;;;;;;;1.70;1.27;;;;;;;;;;5006264;28;20159;-61
2022/11/23 13:29:48;;;;;;;4.23;1.70;;;;;;;;;;4991436;28;20612;-59
2022/11/23 13:32:33;;;;;;;3.20;1.60;;;;;;;;;;4997057;28;20209;-59
2022/11/23 13:34:59;;;;;;;2.77;1.30;;;;;;;;;;5006199;28;20254;-62
2022/11/23 13:37:25;;;;;;;5.23;2.10;;;;;;;;;;5005406;28;20170;-58
2022/11/23 13:39:59;;;;;;;4.13;1.63;;;;;;;;;;5007382;28;20269;-58
2022/11/23 13:42:26;;;;;;;3.47;1.37;;;;;;;;;;4990304;28;20279;-58
2022/11/23 13:45:11;;;;;;;3.93;1.90;;;;;;;;;;5001458;28;20175;-58
2022/11/23 13:47:37;;;;;;;4.57;1.60;;;;;;;;;;4986095;28;20234;-58
2022/11/23 13:50:17;;;;;;;5.97;2.10;;;;;;;;;;4990695;28;20179;-58
2022/11/23 13:52:50;;;;;;;5.47;1.80;;;;;;;;;;4985502;28;20214;-58
2022/11/23 13:55:21;;;;;;;3.33;1.60;;;;;;;;;;4986818;28;20218;-58
2022/11/23 13:58:06;;;;;;;3.07;1.77;;;;;;;;;;4968887;28;20179;-58
2022/11/23 14:00:51;;;;;;;5.17;1.97;;;;;;;;;;4995235;28;20363;-58
2022/11/23 14:03:35;;;;;;;7.80;2.07;;;;;;;;;;4995468;28;20727;-58
2022/11/23 14:06:03;;;;;;;4.63;1.60;;;;;;;;;;4988170;28;20617;-58
2022/11/23 14:08:29;;;;;;;4.50;1.43;;;;;;;;;;4994855;28;20206;-58
2022/11/23 14:10:57;;;;;;;3.50;1.50;;;;;;;;;;5004954;28;20187;-58
2022/11/23 14:13:28;;;;;;;3.47;3.10;;;;;;;;;;5005774;28;20587;-58
2022/11/23 14:16:02;;;;;;;5.00;1.77;;;;;;;;;;4994059;28;20651;-58
2022/11/23 14:18:43;;;;;;;1.67;1.30;;;;;;;;;;4985784;28;20202;-58
2022/11/23 14:21:09;;;;;;;4.97;1.67;;;;;;;;;;4993847;28;20178;-58
2022/11/23 14:24:00;;;;;;;2.57;1.60;;;;;;;;;;4997775;28;20551;-57
2022/11/23 14:26:39;;;;;;;3.93;1.67;;;;;;;;;;4994735;28;20182;-58
2022/11/23 14:29:23;;;;;;;1.63;1.47;;;;;;;;;;4986078;28;20672;-58
2022/11/23 14:32:08;;;;;;;4.50;2.00;;;;;;;;;;4967834;28;20766;-57
2022/11/23 14:34:53;;;;;;;4.53;1.50;;;;;;;;;;4985801;28;20160;-57
2022/11/23 14:37:35;;;;;;;1.43;1.20;;;;;;;;;;4984585;28;20658;-57
2022/11/23 14:40:11;;;;;;;2.23;1.57;;;;;;;;;;4959793;28;20702;-57
2022/11/23 14:42:42;;;;;;;3.60;1.83;;;;;;;;;;4976947;28;20423;-58
2022/11/23 14:45:12;;;;;;;4.07;1.70;;;;;;;;;;4966190;28;20653;-58
2022/11/23 14:47:38;;;;;;;5.63;1.83;;;;;;;;;;4948169;28;21000;-57
2022/11/23 14:50:04;;;;;;;3.87;1.50;;;;;;;;;;4967921;28;20214;-57
2022/11/23 14:52:34;;;;;;;2.43;1.67;;;;;;;;;;4972883;28;20201;-58
2022/11/23 14:55:02;;;;;;;3.40;1.77;;;;;;;;;;4965575;28;20638;-58